Time;durP1;ratioP1;P1;durP2;ratioP2;P2;SDS_P1;SDS_P2;PMS_P1;PMS_P2;Temp;Humidity;BMP_temperature;BMP_pressure;BME280_temperature;BME280_humidity;BME280_pressure;Samples;Min_cycle;Max_cycle;Signal;HPM_P1;HPM_P2
2021/05/21 00:01:31;;;;;;;3.63;3.30;;;14.30;70.40;;;;;;5007430;28;20819;-50
2021/05/21 00:03:59;;;;;;;5.47;3.17;;;14.30;70.50;;;;;;5005474;28;20464;-50
2021/05/21 00:06:28;;;;;;;4.00;3.67;;;14.30;70.80;;;;;;5008348;28;21442;-50
2021/05/21 00:08:57;;;;;;;3.60;3.10;;;14.30;70.80;;;;;;5008014;28;20476;-50
2021/05/21 00:11:25;;;;;;;3.03;2.83;;;14.30;70.90;;;;;;5007832;28;21105;-50
2021/05/21 00:13:53;;;;;;;4.43;3.33;;;14.30;70.90;;;;;;5005345;28;20452;-50
2021/05/21 00:16:21;;;;;;;3.77;3.47;;;14.20;71.00;;;;;;5002758;28;20472;-50
2021/05/21 00:18:51;;;;;;;3.70;3.33;;;14.20;71.30;;;;;;5000939;28;20941;-50
2021/05/21 00:21:19;;;;;;;3.17;2.90;;;14.20;71.60;;;;;;5007040;28;20456;-50
2021/05/21 00:23:48;;;;;;;4.00;3.30;;;14.20;71.90;;;;;;5007996;28;20999;-50
2021/05/21 00:26:15;;;;;;;3.27;2.97;;;14.10;72.00;;;;;;4991702;28;20492;-50
2021/05/21 00:28:43;;;;;;;3.00;2.80;;;14.10;72.30;;;;;;5002420;28;20456;-50
2021/05/21 00:31:11;;;;;;;4.50;3.83;;;14.10;72.30;;;;;;5004839;28;20474;-50
2021/05/21 00:33:39;;;;;;;4.00;3.60;;;14.10;72.60;;;;;;5003624;28;20457;-50
2021/05/21 00:36:07;;;;;;;3.67;3.33;;;14.10;72.60;;;;;;5009874;28;20464;-50
2021/05/21 00:38:35;;;;;;;4.10;2.83;;;14.00;72.70;;;;;;5006047;28;21087;-50
2021/05/21 00:41:05;;;;;;;3.87;3.47;;;14.10;73.00;;;;;;5007049;28;21181;-50
2021/05/21 00:43:33;;;;;;;3.13;2.93;;;14.10;73.00;;;;;;5007408;28;20471;-50
2021/05/21 00:46:01;;;;;;;5.03;3.43;;;14.00;73.00;;;;;;5010706;28;20452;-50
2021/05/21 00:48:29;;;;;;;3.20;3.00;;;14.00;73.10;;;;;;5008750;28;20460;-50
2021/05/21 00:50:57;;;;;;;3.43;3.13;;;14.00;73.20;;;;;;5009090;28;20464;-50
2021/05/21 00:53:29;;;;;;;4.50;3.10;;;14.00;73.30;;;;;;5008997;28;20538;-50
2021/05/21 00:55:58;;;;;;;3.37;3.07;;;14.00;73.50;;;;;;5007310;28;20457;-50
2021/05/21 00:58:27;;;;;;;3.27;3.00;;;14.00;73.50;;;;;;5008629;28;20467;-50
2021/05/21 01:00:55;;;;;;;2.87;2.67;;;14.00;73.50;;;;;;4995148;28;20827;-50
2021/05/21 01:03:23;;;;;;;3.63;2.83;;;14.00;73.60;;;;;;4992628;28;20455;-50
2021/05/21 01:05:51;;;;;;;3.40;3.10;;;14.00;73.60;;;;;;5010345;28;20460;-50
2021/05/21 01:08:20;;;;;;;6.60;3.27;;;14.00;73.50;;;;;;5007228;28;20497;-50
2021/05/21 01:11:07;;;;;;;3.00;2.70;;;14.00;73.50;;;;;;5011804;28;20507;-50
2021/05/21 01:13:36;;;;;;;3.40;3.10;;;14.00;73.50;;;;;;5004896;28;20559;-50
2021/05/21 01:16:04;;;;;;;3.10;2.90;;;14.00;73.50;;;;;;5003248;28;20473;-50
2021/05/21 01:18:32;;;;;;;3.47;3.17;;;14.00;73.40;;;;;;5010847;28;20464;-50
2021/05/21 01:21:00;;;;;;;3.20;2.90;;;14.00;73.40;;;;;;5006227;28;20479;-50
2021/05/21 01:23:29;;;;;;;3.03;2.77;;;14.00;73.40;;;;;;5007665;28;20518;-49
2021/05/21 01:25:57;;;;;;;4.17;3.27;;;14.00;73.40;;;;;;5007553;28;21062;-50
2021/05/21 01:28:25;;;;;;;5.40;3.60;;;14.00;73.40;;;;;;4994862;28;20487;-50
2021/05/21 01:30:53;;;;;;;4.53;3.30;;;14.00;73.40;;;;;;5007797;28;20948;-50
2021/05/21 01:33:21;;;;;;;3.77;3.37;;;14.00;73.40;;;;;;5004745;28;20473;-50
2021/05/21 01:35:51;;;;;;;5.03;3.30;;;14.00;73.40;;;;;;5002736;28;20449;-50
2021/05/21 01:38:18;;;;;;;2.23;2.07;;;14.00;73.30;;;;;;5004700;28;20467;-50
2021/05/21 01:40:48;;;;;;;1.77;1.67;;;14.00;72.60;;;;;;5005663;28;20530;-50
2021/05/21 01:43:16;;;;;;;1.80;1.70;;;13.90;72.30;;;;;;5007623;28;20471;-50
2021/05/21 01:45:44;;;;;;;1.60;1.50;;;13.90;71.60;;;;;;5003671;28;20965;-50
2021/05/21 01:48:12;;;;;;;1.73;1.63;;;13.90;70.90;;;;;;5003746;28;20526;-50
2021/05/21 01:50:40;;;;;;;2.17;1.63;;;13.90;69.20;;;;;;5003089;28;20468;-50
2021/05/21 01:53:08;;;;;;;1.37;1.23;;;14.00;68.90;;;;;;5005910;28;20984;-50
2021/05/21 01:55:37;;;;;;;1.87;1.30;;;14.00;68.90;;;;;;5006285;28;20448;-50
2021/05/21 01:58:05;;;;;;;3.83;1.40;;;14.00;68.60;;;;;;5004511;28;20467;-50
2021/05/21 02:00:33;;;;;;;3.17;2.00;;;14.00;68.60;;;;;;5005167;28;20964;-50
2021/05/21 02:03:01;;;;;;;1.87;1.20;;;14.00;68.40;;;;;;4987022;28;20819;-50
2021/05/21 02:05:29;;;;;;;1.60;1.30;;;14.00;68.40;;;;;;5007308;28;20460;-50
2021/05/21 02:07:57;;;;;;;1.67;1.30;;;14.00;68.00;;;;;;4988356;28;20868;-50
2021/05/21 02:10:24;;;;;;;5.23;1.60;;;14.10;67.60;;;;;;5004855;28;20455;-50
2021/05/21 02:12:52;;;;;;;1.27;1.10;;;14.00;67.60;;;;;;5001908;28;20825;-50
2021/05/21 02:15:20;;;;;;;2.13;1.23;;;14.10;67.40;;;;;;5002915;28;20456;-50
2021/05/21 02:17:48;;;;;;;2.43;1.30;;;14.00;67.20;;;;;;5009057;28;20464;-50
2021/05/21 02:20:17;;;;;;;1.40;1.10;;;14.00;67.10;;;;;;5004018;28;20456;-50
2021/05/21 02:22:45;;;;;;;3.03;1.40;;;14.10;67.30;;;;;;5005588;28;20469;-50
2021/05/21 02:25:14;;;;;;;1.73;1.20;;;14.00;67.30;;;;;;5006493;28;20965;-50
2021/05/21 02:27:42;;;;;;;2.00;1.10;;;14.10;67.30;;;;;;5004176;28;21090;-50
2021/05/21 02:30:11;;;;;;;1.10;1.00;;;14.00;67.40;;;;;;5006924;28;20963;-50
2021/05/21 02:32:39;;;;;;;5.23;1.43;;;14.00;67.20;;;;;;5001978;28;20476;-50
2021/05/21 02:35:11;;;;;;;2.23;1.60;;;14.00;67.10;;;;;;5006520;28;20452;-50
2021/05/21 02:37:39;;;;;;;2.80;1.50;;;14.00;67.10;;;;;;5006140;28;20473;-50
2021/05/21 02:40:10;;;;;;;1.70;1.60;;;14.00;67.00;;;;;;5005407;28;20969;-50
2021/05/21 02:42:38;;;;;;;2.60;1.90;;;14.00;67.10;;;;;;5006973;28;20464;-50
2021/05/21 02:45:07;;;;;;;1.60;1.47;;;13.90;67.10;;;;;;5000362;28;20471;-46
2021/05/21 02:47:35;;;;;;;2.50;1.50;;;13.90;67.10;;;;;;5006133;28;20517;-46
2021/05/21 02:50:06;;;;;;;1.77;1.67;;;13.90;67.20;;;;;;5003464;28;21082;-50
2021/05/21 02:52:34;;;;;;;2.60;1.40;;;13.90;67.40;;;;;;5004949;28;20460;-50
2021/05/21 02:55:03;;;;;;;1.20;1.10;;;13.90;67.60;;;;;;5005537;28;20471;-50
2021/05/21 02:57:31;;;;;;;1.70;0.90;;;13.80;67.70;;;;;;5003115;28;20953;-50
2021/05/21 02:59:59;;;;;;;1.23;1.13;;;13.80;67.60;;;;;;5003450;28;20500;-50
2021/05/21 03:02:28;;;;;;;1.43;1.33;;;13.80;67.50;;;;;;5003140;28;20880;-50
2021/05/21 03:04:57;;;;;;;2.07;1.10;;;13.80;66.90;;;;;;5005094;28;20983;-50
2021/05/21 03:07:24;;;;;;;0.97;0.97;;;13.80;67.00;;;;;;5004627;28;20488;-50
2021/05/21 03:09:53;;;;;;;1.80;1.43;;;13.80;67.30;;;;;;5005455;28;20476;-50
2021/05/21 03:12:21;;;;;;;1.80;1.23;;;13.80;67.30;;;;;;4987170;28;20465;-50
2021/05/21 03:14:49;;;;;;;1.37;1.23;;;13.80;67.40;;;;;;5005418;28;20452;-50
2021/05/21 03:17:17;;;;;;;2.40;1.63;;;13.80;67.50;;;;;;5003758;28;20456;-50
2021/05/21 03:19:46;;;;;;;1.17;1.07;;;13.80;67.50;;;;;;5005692;28;20475;-50
2021/05/21 03:22:14;;;;;;;3.47;1.30;;;13.80;67.60;;;;;;5005454;28;20479;-50
2021/05/21 03:24:42;;;;;;;4.77;1.40;;;13.80;67.60;;;;;;5005383;28;20464;-50
2021/05/21 03:27:10;;;;;;;1.77;1.40;;;13.70;67.80;;;;;;4985903;28;20993;-50
2021/05/21 03:29:38;;;;;;;2.30;1.33;;;13.70;67.90;;;;;;5003571;28;20462;-50
2021/05/21 03:32:06;;;;;;;1.43;1.27;;;13.70;67.90;;;;;;5003236;28;20491;-50
2021/05/21 03:34:34;;;;;;;2.33;2.00;;;13.70;67.80;;;;;;5005531;28;20464;-50
2021/05/21 03:37:02;;;;;;;4.13;1.90;;;13.70;67.60;;;;;;5004102;28;20492;-50
2021/05/21 03:39:30;;;;;;;1.70;1.60;;;13.70;67.60;;;;;;5005525;28;21000;-50
2021/05/21 03:41:58;;;;;;;5.53;1.80;;;13.70;67.60;;;;;;5006635;28;20464;-50
2021/05/21 03:44:26;;;;;;;2.23;1.70;;;13.70;67.30;;;;;;5003269;28;20483;-50
2021/05/21 03:46:57;;;;;;;2.03;1.30;;;13.70;67.00;;;;;;5004115;28;20476;-50
2021/05/21 03:49:25;;;;;;;3.00;1.57;;;13.70;67.20;;;;;;5005964;28;20797;-50
2021/05/21 03:51:54;;;;;;;1.43;1.33;;;13.70;67.30;;;;;;5001432;28;20468;-50
2021/05/21 03:54:22;;;;;;;1.60;1.43;;;13.70;67.10;;;;;;5005500;28;20456;-50
2021/05/21 03:56:51;;;;;;;1.60;1.50;;;13.70;66.70;;;;;;5004679;28;20825;-50
2021/05/21 03:59:19;;;;;;;1.30;1.20;;;13.80;66.10;;;;;;5004131;28;20503;-50
2021/05/21 04:01:49;;;;;;;1.40;1.30;;;13.80;66.30;;;;;;5003332;28;20453;-50
2021/05/21 04:04:17;;;;;;;2.33;1.83;;;13.70;66.30;;;;;;5004526;28;20448;-50
2021/05/21 04:06:45;;;;;;;1.80;1.40;;;13.70;66.20;;;;;;5001467;28;20460;-50
2021/05/21 04:09:13;;;;;;;2.53;1.40;;;13.70;66.30;;;;;;5001531;28;20588;-50
2021/05/21 04:11:41;;;;;;;3.00;1.67;;;13.70;66.20;;;;;;5005478;28;20463;-50
2021/05/21 04:14:09;;;;;;;2.40;1.40;;;13.80;66.30;;;;;;5008419;28;20468;-50
2021/05/21 04:16:37;;;;;;;2.37;1.27;;;13.70;66.50;;;;;;5008033;28;20475;-50
2021/05/21 04:19:05;;;;;;;2.00;1.53;;;13.70;66.60;;;;;;5008148;28;21003;-50
2021/05/21 04:21:35;;;;;;;3.13;1.27;;;13.70;66.70;;;;;;5004780;28;20547;-50
2021/05/21 04:24:03;;;;;;;3.10;2.20;;;13.70;66.70;;;;;;5008341;28;20547;-50
2021/05/21 04:26:31;;;;;;;3.53;1.50;;;13.80;66.60;;;;;;5008800;28;20464;-50
2021/05/21 04:28:59;;;;;;;1.70;1.57;;;13.80;66.60;;;;;;5007608;28;20488;-50
2021/05/21 04:31:28;;;;;;;2.70;1.80;;;13.80;66.80;;;;;;5006647;28;20552;-50
2021/05/21 04:33:55;;;;;;;4.17;1.90;;;13.80;66.80;;;;;;5011468;28;21306;-50
2021/05/21 04:36:23;;;;;;;2.23;2.10;;;13.80;66.80;;;;;;5012184;28;20452;-50
2021/05/21 04:38:51;;;;;;;2.50;2.03;;;13.80;67.10;;;;;;5011085;28;20541;-50
2021/05/21 04:41:20;;;;;;;3.47;1.70;;;13.80;67.30;;;;;;5009901;28;20461;-50
2021/05/21 04:43:47;;;;;;;2.13;1.93;;;13.90;67.20;;;;;;5009856;28;20468;-50
2021/05/21 04:46:16;;;;;;;2.07;1.77;;;13.90;67.20;;;;;;5007360;28;21170;-50
2021/05/21 04:48:43;;;;;;;2.07;1.70;;;13.90;67.40;;;;;;5010569;28;20488;-49
2021/05/21 04:51:12;;;;;;;2.27;2.00;;;13.90;67.60;;;;;;5004647;28;20457;-50
2021/05/21 04:53:42;;;;;;;2.57;1.50;;;14.00;67.40;;;;;;5005560;28;20967;-50
2021/05/21 04:56:11;;;;;;;3.10;1.87;;;13.90;67.50;;;;;;5004567;28;22104;-50
2021/05/21 04:58:40;;;;;;;2.87;1.87;;;13.90;67.60;;;;;;5005537;28;20512;-50
2021/05/21 05:01:08;;;;;;;2.20;1.80;;;14.00;67.70;;;;;;5007835;28;20510;-50
2021/05/21 05:03:37;;;;;;;17.57;2.80;;;14.00;67.70;;;;;;4991331;28;20452;-50
2021/05/21 05:06:05;;;;;;;2.40;2.20;;;14.00;68.00;;;;;;5008266;28;21103;-50
2021/05/21 05:08:34;;;;;;;3.40;2.00;;;14.00;68.20;;;;;;5007512;28;20729;-50
2021/05/21 05:11:02;;;;;;;2.70;1.83;;;14.10;67.90;;;;;;5009445;28;20830;-50
2021/05/21 05:13:30;;;;;;;3.60;2.30;;;14.10;67.90;;;;;;5009476;28;20463;-50
2021/05/21 05:15:58;;;;;;;1.73;1.63;;;14.00;67.90;;;;;;5005301;28;20464;-50
2021/05/21 05:18:27;;;;;;;2.10;1.67;;;14.10;67.70;;;;;;5007668;28;20456;-50
2021/05/21 05:20:56;;;;;;;3.30;1.80;;;14.10;67.70;;;;;;5003935;28;20586;-50
2021/05/21 05:23:24;;;;;;;2.10;2.00;;;14.10;67.70;;;;;;5006587;28;20824;-50
2021/05/21 05:25:52;;;;;;;5.70;2.00;;;14.10;67.70;;;;;;5009967;28;20460;-50
2021/05/21 05:28:20;;;;;;;1.90;1.80;;;14.10;67.40;;;;;;5010314;28;20480;-49
2021/05/21 05:30:50;;;;;;;1.87;1.60;;;14.20;67.50;;;;;;5005629;28;20468;-50
2021/05/21 05:33:18;;;;;;;2.07;1.90;;;14.20;67.40;;;;;;5007791;28;20453;-50
2021/05/21 05:35:46;;;;;;;2.63;1.60;;;14.30;67.30;;;;;;5006175;28;20465;-50
2021/05/21 05:38:14;;;;;;;4.27;2.40;;;14.30;67.20;;;;;;5007489;28;20465;-50
2021/05/21 05:40:42;;;;;;;2.27;2.07;;;14.30;67.20;;;;;;5007609;28;20960;-50
2021/05/21 05:43:10;;;;;;;2.00;1.73;;;14.30;67.10;;;;;;5004653;28;20464;-50
2021/05/21 05:45:38;;;;;;;1.63;1.53;;;14.40;67.30;;;;;;5007424;28;20468;-50
2021/05/21 05:48:07;;;;;;;2.20;2.00;;;14.40;67.10;;;;;;5007745;28;21011;-50
2021/05/21 05:50:35;;;;;;;2.10;2.00;;;14.40;67.10;;;;;;5004211;28;20453;-50
2021/05/21 05:53:03;;;;;;;3.60;1.63;;;14.50;67.00;;;;;;5005039;28;20472;-50
2021/05/21 05:55:32;;;;;;;2.40;2.20;;;14.50;66.80;;;;;;5007333;28;20453;-50
2021/05/21 05:58:01;;;;;;;4.47;1.73;;;14.50;66.70;;;;;;5006701;28;20853;-50
2021/05/21 06:00:29;;;;;;;2.03;1.90;;;14.60;66.40;;;;;;5007334;28;20471;-50
2021/05/21 06:03:07;;;;;;;2.40;1.60;;;14.60;66.00;;;;;;5006630;28;20468;-50
2021/05/21 06:05:36;;;;;;;2.20;1.60;;;14.60;66.30;;;;;;5007435;28;20452;-50
2021/05/21 06:08:06;;;;;;;1.53;1.43;;;14.70;66.60;;;;;;5004837;28;20570;-50
2021/05/21 06:10:35;;;;;;;2.00;1.70;;;14.70;66.70;;;;;;4987910;28;20543;-50
2021/05/21 06:13:09;;;;;;;2.53;1.97;;;14.80;66.70;;;;;;5006332;28;20460;-50
2021/05/21 06:15:39;;;;;;;1.60;1.23;;;14.90;66.50;;;;;;5006796;28;20591;-50
2021/05/21 06:18:07;;;;;;;3.80;1.40;;;15.00;65.50;;;;;;5005594;28;20449;-50
2021/05/21 06:20:35;;;;;;;1.57;1.47;;;15.00;65.40;;;;;;5006584;28;20969;-50
2021/05/21 06:23:03;;;;;;;1.77;1.40;;;15.00;65.50;;;;;;5004244;28;20530;-51
2021/05/21 06:28:09;;;;;;;1.63;1.53;;;15.10;65.30;;;;;;5003375;28;20543;-50
2021/05/21 06:30:37;;;;;;;2.40;1.57;;;15.10;65.20;;;;;;5003856;28;20479;-50
2021/05/21 06:33:05;;;;;;;2.30;1.40;;;15.20;65.00;;;;;;5005372;28;20460;-50
2021/05/21 06:35:36;;;;;;;4.00;1.30;;;15.20;65.10;;;;;;5006847;28;20837;-50
2021/05/21 06:38:05;;;;;;;1.50;1.40;;;15.30;65.00;;;;;;5005299;28;20461;-50
2021/05/21 06:40:33;;;;;;;2.23;1.80;;;15.30;64.80;;;;;;5002311;28;20499;-50
2021/05/21 06:43:07;;;;;;;2.97;1.60;;;15.40;64.30;;;;;;5005927;28;20456;-50
2021/05/21 06:45:36;;;;;;;1.67;1.40;;;15.50;64.30;;;;;;5002928;28;20951;-50
2021/05/21 06:48:05;;;;;;;3.33;1.40;;;15.50;64.50;;;;;;5006370;28;21063;-46
2021/05/21 06:50:33;;;;;;;2.60;1.40;;;15.50;64.60;;;;;;5004670;28;20515;-45
2021/05/21 06:53:05;;;;;;;2.00;1.43;;;15.50;64.70;;;;;;5004121;28;20473;-49
2021/05/21 06:55:33;;;;;;;2.30;2.10;;;15.50;64.60;;;;;;4998750;28;20458;-46
2021/05/21 06:58:00;;;;;;;1.70;1.60;;;15.50;64.60;;;;;;5004257;28;20802;-46
2021/05/21 07:00:29;;;;;;;3.63;2.00;;;15.50;64.80;;;;;;5005206;28;20476;-45
2021/05/21 07:02:57;;;;;;;4.60;1.77;;;15.50;65.00;;;;;;5007026;28;20452;-46
2021/05/21 07:05:25;;;;;;;1.50;1.40;;;15.50;64.90;;;;;;4984425;28;20852;-46
2021/05/21 07:07:53;;;;;;;2.60;1.80;;;15.50;64.90;;;;;;5002664;28;20460;-46
2021/05/21 07:10:22;;;;;;;3.80;1.70;;;15.50;64.90;;;;;;5003935;28;21127;-46
2021/05/21 07:12:50;;;;;;;1.00;0.90;;;15.60;64.50;;;;;;5003151;28;20479;-46
2021/05/21 07:15:18;;;;;;;2.40;1.10;;;15.60;63.70;;;;;;5005293;28;20461;-45
2021/05/21 07:17:47;;;;;;;1.77;1.03;;;15.60;61.30;;;;;;5005527;28;20506;-46
2021/05/21 07:20:15;;;;;;;1.17;1.07;;;15.70;60.90;;;;;;5001682;28;20900;-46
2021/05/21 07:22:43;;;;;;;2.73;1.10;;;15.70;60.30;;;;;;5005008;28;20862;-46
2021/05/21 07:25:12;;;;;;;2.50;1.00;;;15.70;60.10;;;;;;5007455;28;20487;-45
2021/05/21 07:27:40;;;;;;;2.00;0.97;;;15.70;59.70;;;;;;5006856;28;21003;-46
2021/05/21 07:30:09;;;;;;;1.97;1.20;;;15.70;59.70;;;;;;5002389;28;20507;-45
2021/05/21 07:32:37;;;;;;;2.23;1.50;;;15.80;59.50;;;;;;5004174;28;20475;-46
2021/05/21 07:35:06;;;;;;;4.83;1.10;;;15.80;59.30;;;;;;5005376;28;20476;-45
2021/05/21 07:37:34;;;;;;;1.37;0.93;;;15.80;60.40;;;;;;5002745;28;20472;-45
2021/05/21 07:40:04;;;;;;;1.47;1.03;;;15.90;59.70;;;;;;5005209;28;20452;-46
2021/05/21 07:42:36;;;;;;;4.40;1.03;;;15.90;60.20;;;;;;5005941;28;20460;-45
2021/05/21 07:45:06;;;;;;;4.20;1.00;;;15.90;60.30;;;;;;5002659;28;20971;-45
2021/05/21 07:47:35;;;;;;;1.23;1.00;;;15.90;59.60;;;;;;5004607;28;20836;-45
2021/05/21 07:50:08;;;;;;;1.43;1.23;;;15.90;60.10;;;;;;5005213;28;21079;-46
2021/05/21 07:52:35;;;;;;;3.23;1.00;;;16.00;59.60;;;;;;5001709;28;20457;-48
2021/05/21 07:55:06;;;;;;;2.00;1.00;;;16.00;60.30;;;;;;5007058;28;20467;-48
2021/05/21 07:57:36;;;;;;;1.40;0.93;;;16.00;60.30;;;;;;5005313;28;20456;-48
2021/05/21 08:00:06;;;;;;;3.03;0.97;;;16.00;60.30;;;;;;5004252;28;20498;-48
2021/05/21 08:02:36;;;;;;;1.53;0.90;;;16.00;60.00;;;;;;5005067;28;20479;-48
2021/05/21 08:05:06;;;;;;;2.83;1.10;;;16.00;60.00;;;;;;5003276;28;20471;-48
2021/05/21 08:07:34;;;;;;;1.90;1.70;;;16.00;60.40;;;;;;5005659;28;20465;-48
2021/05/21 08:10:05;;;;;;;1.20;1.03;;;16.00;60.60;;;;;;5001646;28;20501;-48
2021/05/21 08:12:33;;;;;;;1.87;1.00;;;16.00;61.00;;;;;;5001126;28;20480;-48
2021/05/21 08:15:02;;;;;;;1.80;1.00;;;16.00;60.40;;;;;;5004218;28;20448;-49
2021/05/21 08:17:36;;;;;;;2.20;1.17;;;16.00;60.50;;;;;;5005150;28;20448;-49
2021/05/21 08:20:11;;;;;;;2.30;1.30;;;16.10;60.90;;;;;;5005300;28;20468;-49
2021/05/21 08:22:39;;;;;;;2.37;1.30;;;16.10;60.70;;;;;;5005604;28;20468;-49
2021/05/21 08:25:07;;;;;;;3.80;1.50;;;16.10;59.10;;;;;;4999343;28;20615;-49
2021/05/21 08:27:36;;;;;;;2.43;1.03;;;16.10;58.80;;;;;;5005628;28;20457;-48
2021/05/21 08:30:04;;;;;;;4.43;1.00;;;16.10;59.60;;;;;;5002235;28;20527;-48
2021/05/21 08:32:35;;;;;;;1.93;1.13;;;16.00;59.00;;;;;;5005063;28;20457;-49
2021/05/21 08:35:03;;;;;;;6.20;1.17;;;16.00;59.30;;;;;;5005876;28;20463;-49
2021/05/21 08:37:31;;;;;;;2.50;1.00;;;16.10;59.20;;;;;;5008275;28;20519;-48
2021/05/21 08:40:00;;;;;;;2.60;1.27;;;16.10;59.20;;;;;;5004028;28;20515;-49
2021/05/21 08:42:36;;;;;;;2.90;1.30;;;16.20;58.50;;;;;;5004214;28;20483;-49
2021/05/21 08:45:06;;;;;;;1.43;1.30;;;16.20;59.30;;;;;;5006424;28;20464;-49
2021/05/21 08:47:34;;;;;;;2.70;1.43;;;16.30;59.20;;;;;;5004608;28;20491;-49
2021/05/21 08:50:05;;;;;;;3.23;1.30;;;16.40;57.60;;;;;;5003778;28;20538;-49
2021/05/21 08:52:34;;;;;;;5.37;1.40;;;16.50;57.70;;;;;;5006715;28;20459;-49
2021/05/21 08:55:03;;;;;;;1.27;1.13;;;16.60;57.00;;;;;;5002703;28;20449;-49
2021/05/21 08:57:31;;;;;;;2.83;1.50;;;16.70;57.70;;;;;;5009577;28;20448;-49
2021/05/21 08:59:59;;;;;;;3.30;1.27;;;16.80;57.80;;;;;;5004999;28;20464;-49
2021/05/21 09:02:29;;;;;;;3.13;1.47;;;16.80;56.60;;;;;;5007490;28;20449;-48
2021/05/21 09:04:59;;;;;;;3.27;0.97;;;16.90;56.30;;;;;;5006366;28;20468;-49
2021/05/21 09:07:31;;;;;;;5.87;2.00;;;17.00;56.20;;;;;;5006535;28;20551;-49
2021/05/21 09:10:12;;;;;;;3.53;1.00;;;17.00;54.00;;;;;;5004807;28;20993;-49
2021/05/21 09:12:43;;;;;;;5.50;1.60;;;17.20;54.50;;;;;;5009200;28;20482;-49
2021/05/21 09:15:20;;;;;;;7.13;1.83;;;17.50;54.50;;;;;;5008707;28;20460;-49
2021/05/21 09:18:03;;;;;;;3.80;1.47;;;17.80;52.70;;;;;;5006074;28;20470;-49
2021/05/21 09:20:33;;;;;;;11.87;1.70;;;18.10;51.90;;;;;;5007025;28;20460;-49
2021/05/21 09:23:03;;;;;;;7.40;2.00;;;18.20;51.10;;;;;;5010678;28;20468;-49
2021/05/21 09:25:51;;;;;;;4.03;1.70;;;18.10;50.30;;;;;;5000010;28;20901;-49
2021/05/21 09:28:37;;;;;;;4.70;1.60;;;18.00;50.80;;;;;;5004078;28;20465;-49
2021/05/21 09:31:22;;;;;;;4.00;1.30;;;17.90;51.20;;;;;;5005225;28;20983;-49
2021/05/21 09:33:52;;;;;;;6.37;1.73;;;17.80;50.70;;;;;;5003684;28;20548;-49
2021/05/21 09:36:32;;;;;;;5.07;1.40;;;17.80;51.20;;;;;;5005724;28;20464;-49
2021/05/21 09:39:04;;;;;;;9.07;1.90;;;17.70;51.30;;;;;;5004539;28;20570;-49
2021/05/21 09:41:54;;;;;;;10.03;2.23;;;17.70;51.60;;;;;;5006489;28;20460;-49
2021/05/21 09:44:23;;;;;;;5.40;1.63;;;17.80;51.70;;;;;;4986360;28;20471;-49
2021/05/21 09:46:52;;;;;;;7.63;2.00;;;18.20;51.10;;;;;;5004091;28;20469;-49
2021/05/21 09:49:32;;;;;;;4.97;2.40;;;18.60;50.30;;;;;;5005288;28;20550;-50
2021/05/21 09:52:14;;;;;;;5.70;1.87;;;18.90;49.70;;;;;;5005668;28;20471;-48
2021/05/21 09:54:54;;;;;;;4.73;1.40;;;18.90;49.20;;;;;;5005175;28;21051;-48
2021/05/21 09:57:36;;;;;;;4.70;2.00;;;19.00;48.90;;;;;;5005449;28;20498;-48
2021/05/21 10:00:09;;;;;;;6.47;1.73;;;19.20;49.10;;;;;;5005356;28;20597;-48
2021/05/21 10:02:41;;;;;;;4.73;1.67;;;19.20;48.70;;;;;;5007320;28;20480;-48
2021/05/21 10:05:12;;;;;;;5.20;2.03;;;19.10;48.90;;;;;;5004588;28;20457;-48
2021/05/21 10:07:42;;;;;;;5.20;1.97;;;18.80;49.20;;;;;;5005739;28;20460;-48
2021/05/21 10:10:10;;;;;;;7.00;2.40;;;18.60;49.70;;;;;;5005753;28;20939;-48
2021/05/21 10:12:39;;;;;;;4.90;1.40;;;18.40;50.30;;;;;;5008079;28;20468;-48
2021/05/21 10:15:08;;;;;;;3.53;1.67;;;18.30;50.40;;;;;;5005928;28;20957;-48
2021/05/21 10:17:38;;;;;;;4.03;2.10;;;18.30;51.30;;;;;;5005333;28;20452;-48
2021/05/21 10:20:08;;;;;;;6.23;2.07;;;18.30;51.30;;;;;;5004539;28;20507;-48
2021/05/21 10:22:38;;;;;;;6.70;1.73;;;18.20;50.80;;;;;;5005767;28;21169;-48
2021/05/21 10:25:13;;;;;;;5.70;1.60;;;18.20;51.30;;;;;;5002461;28;20460;-48
2021/05/21 10:27:46;;;;;;;5.63;2.00;;;18.20;52.10;;;;;;5003675;28;20458;-48
2021/05/21 10:30:15;;;;;;;3.60;1.47;;;18.20;50.60;;;;;;5004734;28;20492;-48
2021/05/21 10:32:43;;;;;;;5.43;1.63;;;18.20;50.70;;;;;;5007726;28;20476;-47
2021/05/21 10:35:21;;;;;;;6.70;1.70;;;18.10;50.40;;;;;;5005971;28;20469;-47
2021/05/21 10:37:50;;;;;;;5.53;2.07;;;18.10;50.40;;;;;;5007360;28;20463;-47
2021/05/21 10:40:29;;;;;;;2.80;1.77;;;18.10;50.90;;;;;;5002804;28;20468;-48
2021/05/21 10:42:58;;;;;;;4.30;2.10;;;18.10;50.90;;;;;;5003674;28;20464;-48
2021/05/21 10:45:26;;;;;;;7.33;1.87;;;18.20;51.40;;;;;;5006802;28;20464;-47
2021/05/21 10:47:59;;;;;;;4.90;1.50;;;18.20;51.00;;;;;;5005240;28;20464;-48
2021/05/21 10:50:38;;;;;;;7.17;1.73;;;18.20;52.10;;;;;;5007498;28;21000;-48
2021/05/21 10:53:08;;;;;;;5.27;1.80;;;18.10;51.90;;;;;;5002644;28;20502;-48
2021/05/21 10:55:54;;;;;;;3.80;2.10;;;18.20;52.20;;;;;;5006155;28;20794;-48
2021/05/21 10:58:37;;;;;;;7.57;2.03;;;18.20;51.70;;;;;;5003798;28;20484;-48
2021/05/21 11:01:12;;;;;;;3.60;1.70;;;18.20;51.80;;;;;;5004712;28;20957;-48
2021/05/21 11:03:58;;;;;;;3.80;1.83;;;18.20;52.00;;;;;;5005765;28;20467;-48
2021/05/21 11:06:27;;;;;;;7.33;1.97;;;18.10;51.80;;;;;;5006764;28;21179;-48
2021/05/21 11:09:04;;;;;;;13.50;2.03;;;18.10;52.70;;;;;;5004470;28;20495;-48
2021/05/21 11:12:05;;;;;;;5.17;1.73;;;18.10;51.40;;;;;;5006816;28;20461;-48
2021/05/21 11:14:46;;;;;;;7.80;1.60;;;18.10;50.20;;;;;;5005827;28;20460;-47
2021/05/21 11:17:22;;;;;;;7.50;1.80;;;18.00;47.60;;;;;;5008225;28;20457;-48
2021/05/21 11:19:57;;;;;;;5.67;1.60;;;18.00;47.70;;;;;;5006132;28;20471;-47
2021/05/21 11:22:29;;;;;;;2.30;1.20;;;18.00;48.40;;;;;;5004991;28;20925;-48
2021/05/21 11:25:07;;;;;;;5.60;1.60;;;18.00;48.10;;;;;;5005572;28;21237;-48
2021/05/21 11:27:37;;;;;;;3.93;1.77;;;18.10;48.60;;;;;;5001962;28;20464;-48
2021/05/21 11:30:10;;;;;;;6.20;2.00;;;18.10;47.60;;;;;;5007778;28;20521;-48
2021/05/21 11:32:40;;;;;;;4.60;2.00;;;18.10;46.90;;;;;;4988274;28;21020;-48
2021/05/21 11:35:10;;;;;;;4.73;1.57;;;18.10;47.30;;;;;;5006293;28;20457;-47
2021/05/21 11:37:41;;;;;;;7.60;1.80;;;18.10;48.10;;;;;;5004608;28;20459;-47
2021/05/21 11:40:10;;;;;;;4.10;2.30;;;18.10;47.90;;;;;;5004865;28;20454;-48
2021/05/21 11:42:38;;;;;;;2.50;1.57;;;18.20;48.00;;;;;;5004564;28;20461;-48
2021/05/21 11:45:07;;;;;;;5.70;1.83;;;18.20;48.10;;;;;;5001478;28;20473;-48
2021/05/21 11:47:40;;;;;;;4.47;1.20;;;18.30;47.90;;;;;;4988497;28;20459;-48
2021/05/21 11:50:09;;;;;;;4.30;1.80;;;18.30;48.40;;;;;;5005478;28;20547;-48
2021/05/21 11:52:38;;;;;;;5.97;1.70;;;18.30;48.70;;;;;;5005134;28;20445;-48
2021/05/21 11:55:07;;;;;;;5.57;1.80;;;18.30;48.60;;;;;;5005743;28;20463;-48
2021/05/21 11:57:35;;;;;;;6.07;2.07;;;18.30;48.70;;;;;;5004674;28;20464;-48
2021/05/21 12:00:05;;;;;;;5.20;1.70;;;18.30;49.10;;;;;;5003474;28;20479;-48
2021/05/21 12:02:33;;;;;;;4.07;1.63;;;18.30;49.20;;;;;;5006633;28;21708;-48
2021/05/21 12:05:06;;;;;;;4.13;1.40;;;18.40;49.60;;;;;;5008323;28;20467;-47
2021/05/21 12:07:37;;;;;;;7.80;2.70;;;18.40;48.40;;;;;;5005135;28;20972;-47
2021/05/21 12:10:06;;;;;;;5.93;1.87;;;18.40;48.00;;;;;;5004105;28;20582;-47
2021/05/21 12:12:36;;;;;;;3.70;1.80;;;18.40;48.60;;;;;;5007042;28;20467;-48
2021/05/21 12:15:13;;;;;;;4.80;1.90;;;18.30;49.00;;;;;;5003157;28;20452;-47
2021/05/21 12:17:46;;;;;;;6.73;2.17;;;18.20;49.00;;;;;;5004859;28;21030;-48
2021/05/21 12:20:15;;;;;;;4.20;1.23;;;18.20;49.30;;;;;;5007345;28;20460;-48
2021/05/21 12:23:06;;;;;;;5.40;1.80;;;18.20;49.40;;;;;;5004595;28;20475;-48
2021/05/21 12:25:37;;;;;;;6.60;1.83;;;18.20;50.70;;;;;;5004318;28;20483;-47
2021/05/21 12:28:05;;;;;;;3.83;1.80;;;18.20;51.20;;;;;;5003263;28;20464;-48
2021/05/21 12:30:36;;;;;;;3.43;2.07;;;18.20;50.80;;;;;;5004295;28;20492;-48
2021/05/21 12:33:11;;;;;;;1.20;1.10;;;18.30;50.00;;;;;;5005362;28;21361;-48
2021/05/21 12:35:41;;;;;;;4.67;1.70;;;18.30;50.10;;;;;;5008266;28;20456;-47
2021/05/21 12:38:12;;;;;;;4.10;1.43;;;18.30;49.70;;;;;;5006508;28;20851;-48
2021/05/21 12:40:54;;;;;;;3.93;1.67;;;18.30;49.10;;;;;;5009305;28;20460;-48
2021/05/21 12:43:24;;;;;;;6.10;1.23;;;18.40;48.80;;;;;;5008244;28;20452;-49
2021/05/21 12:46:03;;;;;;;3.73;1.67;;;18.40;49.20;;;;;;5005943;28;20460;-49
2021/05/21 12:48:41;;;;;;;3.57;1.47;;;18.40;49.40;;;;;;5005878;28;20468;-49
2021/05/21 12:51:21;;;;;;;3.63;1.30;;;18.40;49.00;;;;;;5008263;28;20487;-49
2021/05/21 12:53:51;;;;;;;1.70;1.60;;;18.40;49.40;;;;;;5008466;28;20471;-49
2021/05/21 12:56:31;;;;;;;4.67;1.30;;;18.30;49.00;;;;;;4985086;28;20476;-49
2021/05/21 12:59:03;;;;;;;3.70;2.10;;;18.30;48.20;;;;;;5005772;28;20553;-48
2021/05/21 13:01:32;;;;;;;3.80;1.47;;;18.30;47.70;;;;;;5005344;28;20480;-48
2021/05/21 13:04:01;;;;;;;3.80;1.40;;;18.30;47.80;;;;;;5007474;28;20618;-49